sensor_id;sensor_type;location;lat;lon;timestamp;temperature;humidity
11505;DHT22;5809;53.262;10.408;2024-03-02T00:00:49;8.20;99.90
11505;DHT22;5809;53.262;10.408;2024-03-02T00:03:16;11.80;99.90
11505;DHT22;5809;53.262;10.408;2024-03-02T00:05:44;8.20;99.90
11505;DHT22;5809;53.262;10.408;2024-03-02T00:08:22;8.10;99.90
11505;DHT22;5809;53.262;10.408;2024-03-02T00:10:50;8.10;99.90
11505;DHT22;5809;53.262;10.408;2024-03-02T00:13:20;8.10;99.90
11505;DHT22;5809;53.262;10.408;2024-03-02T00:15:51;8.10;99.90
11505;DHT22;5809;53.262;10.408;2024-03-02T00:18:19;8.10;99.90
11505;DHT22;5809;53.262;10.408;2024-03-02T00:20:48;8.10;99.90
11505;DHT22;5809;53.262;10.408;2024-03-02T00:23:16;8.00;99.90
11505;DHT22;5809;53.262;10.408;2024-03-02T00:25:46;8.00;99.90
11505;DHT22;5809;53.262;10.408;2024-03-02T00:28:16;7.90;99.90
11505;DHT22;5809;53.262;10.408;2024-03-02T00:30:51;7.90;99.90
11505;DHT22;5809;53.262;10.408;2024-03-02T00:33:20;7.90;99.90
11505;DHT22;5809;53.262;10.408;2024-03-02T00:35:49;7.90;99.90
11505;DHT22;5809;53.262;10.408;2024-03-02T00:38:16;7.80;99.90
11505;DHT22;5809;53.262;10.408;2024-03-02T00:40:43;7.70;99.90
11505;DHT22;5809;53.262;10.408;2024-03-02T00:43:38;7.80;99.90
11505;DHT22;5809;53.262;10.408;2024-03-02T00:46:07;7.70;99.90
11505;DHT22;5809;53.262;10.408;2024-03-02T00:48:34;7.70;99.90
11505;DHT22;5809;53.262;10.408;2024-03-02T00:51:03;7.70;99.90
11505;DHT22;5809;53.262;10.408;2024-03-02T00:53:31;9.80;99.90
11505;DHT22;5809;53.262;10.408;2024-03-02T00:55:58;7.70;99.90
11505;DHT22;5809;53.262;10.408;2024-03-02T00:58:25;7.70;99.90
11505;DHT22;5809;53.262;10.408;2024-03-02T01:03:20;7.70;99.90
11505;DHT22;5809;53.262;10.408;2024-03-02T01:08:15;7.60;99.90
11505;DHT22;5809;53.262;10.408;2024-03-02T01:13:09;7.60;99.90
11505;DHT22;5809;53.262;10.408;2024-03-02T01:15:36;7.60;99.90
11505;DHT22;5809;53.262;10.408;2024-03-02T01:18:03;7.60;99.90
11505;DHT22;5809;53.262;10.408;2024-03-02T01:20:30;7.50;99.90
11505;DHT22;5809;53.262;10.408;2024-03-02T01:25:25;7.50;99.90
11505;DHT22;5809;53.262;10.408;2024-03-02T01:27:52;7.50;99.90
11505;DHT22;5809;53.262;10.408;2024-03-02T01:30:19;7.50;99.90
11505;DHT22;5809;53.262;10.408;2024-03-02T01:32:46;7.50;99.90
11505;DHT22;5809;53.262;10.408;2024-03-02T01:40:09;7.40;99.90
11505;DHT22;5809;53.262;10.408;2024-03-02T01:42:38;7.40;99.90
11505;DHT22;5809;53.262;10.408;2024-03-02T01:45:06;7.40;99.90
11505;DHT22;5809;53.262;10.408;2024-03-02T01:47:33;7.40;99.90
11505;DHT22;5809;53.262;10.408;2024-03-02T01:50:01;7.30;99.90
11505;DHT22;5809;53.262;10.408;2024-03-02T01:52:27;7.30;99.90
11505;DHT22;5809;53.262;10.408;2024-03-02T01:54:55;7.30;99.90
11505;DHT22;5809;53.262;10.408;2024-03-02T01:57:21;7.30;99.90
11505;DHT22;5809;53.262;10.408;2024-03-02T01:59:50;7.30;99.90
11505;DHT22;5809;53.262;10.408;2024-03-02T02:02:17;7.40;99.90
11505;DHT22;5809;53.262;10.408;2024-03-02T02:04:44;7.40;99.90
11505;DHT22;5809;53.262;10.408;2024-03-02T02:07:10;7.40;99.90
11505;DHT22;5809;53.262;10.408;2024-03-02T02:09:39;7.40;99.90
11505;DHT22;5809;53.262;10.408;2024-03-02T02:12:07;7.40;99.90
11505;DHT22;5809;53.262;10.408;2024-03-02T02:14:34;7.30;99.90
11505;DHT22;5809;53.262;10.408;2024-03-02T02:17:02;7.40;99.90
11505;DHT22;5809;53.262;10.408;2024-03-02T02:19:29;7.40;99.90
11505;DHT22;5809;53.262;10.408;2024-03-02T02:21:57;7.40;99.90
11505;DHT22;5809;53.262;10.408;2024-03-02T02:24:24;7.40;99.90
11505;DHT22;5809;53.262;10.408;2024-03-02T02:26:50;7.40;99.90
11505;DHT22;5809;53.262;10.408;2024-03-02T02:31:44;7.30;99.90
11505;DHT22;5809;53.262;10.408;2024-03-02T02:34:11;7.30;99.90
11505;DHT22;5809;53.262;10.408;2024-03-02T02:36:39;7.30;99.90
11505;DHT22;5809;53.262;10.408;2024-03-02T02:39:09;7.30;99.90
11505;DHT22;5809;53.262;10.408;2024-03-02T02:41:37;7.30;99.90
11505;DHT22;5809;53.262;10.408;2024-03-02T02:44:04;7.20;99.90
11505;DHT22;5809;53.262;10.408;2024-03-02T02:46:31;7.20;99.90
11505;DHT22;5809;53.262;10.408;2024-03-02T02:48:58;7.20;99.90
11505;DHT22;5809;53.262;10.408;2024-03-02T02:51:25;7.10;99.90
11505;DHT22;5809;53.262;10.408;2024-03-02T02:53:52;7.10;99.90
11505;DHT22;5809;53.262;10.408;2024-03-02T02:56:20;7.10;99.90
11505;DHT22;5809;53.262;10.408;2024-03-02T03:01:15;7.10;99.90
11505;DHT22;5809;53.262;10.408;2024-03-02T03:03:42;7.10;99.90
11505;DHT22;5809;53.262;10.408;2024-03-02T03:06:09;7.10;99.90
11505;DHT22;5809;53.262;10.408;2024-03-02T03:11:03;7.20;99.90
11505;DHT22;5809;53.262;10.408;2024-03-02T03:13:31;7.10;99.90
11505;DHT22;5809;53.262;10.408;2024-03-02T03:15:58;7.10;99.90
11505;DHT22;5809;53.262;10.408;2024-03-02T03:18:25;7.10;99.90
11505;DHT22;5809;53.262;10.408;2024-03-02T03:25:46;7.20;99.90
11505;DHT22;5809;53.262;10.408;2024-03-02T03:28:13;7.20;99.90
11505;DHT22;5809;53.262;10.408;2024-03-02T03:30:41;7.20;99.90
11505;DHT22;5809;53.262;10.408;2024-03-02T03:33:08;7.10;99.90
11505;DHT22;5809;53.262;10.408;2024-03-02T03:35:36;7.20;99.90
11505;DHT22;5809;53.262;10.408;2024-03-02T03:38:04;7.20;99.90
11505;DHT22;5809;53.262;10.408;2024-03-02T03:40:31;7.20;99.90
11505;DHT22;5809;53.262;10.408;2024-03-02T03:45:25;7.20;99.90
11505;DHT22;5809;53.262;10.408;2024-03-02T03:47:54;7.20;99.90
11505;DHT22;5809;53.262;10.408;2024-03-02T03:50:20;7.20;99.90
11505;DHT22;5809;53.262;10.408;2024-03-02T03:52:47;7.20;99.90
11505;DHT22;5809;53.262;10.408;2024-03-02T03:55:14;7.20;99.90
11505;DHT22;5809;53.262;10.408;2024-03-02T03:57:41;7.30;99.90
11505;DHT22;5809;53.262;10.408;2024-03-02T04:00:08;7.20;99.90
11505;DHT22;5809;53.262;10.408;2024-03-02T04:02:37;7.20;99.90
11505;DHT22;5809;53.262;10.408;2024-03-02T04:05:06;7.20;99.90
11505;DHT22;5809;53.262;10.408;2024-03-02T04:07:35;7.20;99.90
11505;DHT22;5809;53.262;10.408;2024-03-02T04:10:09;7.20;99.90
11505;DHT22;5809;53.262;10.408;2024-03-02T04:12:36;7.20;99.90
11505;DHT22;5809;53.262;10.408;2024-03-02T04:15:04;7.20;99.90
11505;DHT22;5809;53.262;10.408;2024-03-02T04:17:32;7.10;99.90
11505;DHT22;5809;53.262;10.408;2024-03-02T04:20:01;7.20;99.90
11505;DHT22;5809;53.262;10.408;2024-03-02T04:22:33;7.20;99.90
11505;DHT22;5809;53.262;10.408;2024-03-02T04:25:01;7.20;99.90
11505;DHT22;5809;53.262;10.408;2024-03-02T04:27:28;7.20;99.90
11505;DHT22;5809;53.262;10.408;2024-03-02T04:32:21;7.20;99.90
11505;DHT22;5809;53.262;10.408;2024-03-02T04:34:48;7.20;99.90
11505;DHT22;5809;53.262;10.408;2024-03-02T04:37:15;7.20;99.90
11505;DHT22;5809;53.262;10.408;2024-03-02T04:39:43;7.20;99.90
11505;DHT22;5809;53.262;10.408;2024-03-02T04:42:10;7.20;99.90
11505;DHT22;5809;53.262;10.408;2024-03-02T04:49:31;7.20;99.90
11505;DHT22;5809;53.262;10.408;2024-03-02T04:51:58;7.20;99.90
11505;DHT22;5809;53.262;10.408;2024-03-02T04:54:25;7.20;99.90
11505;DHT22;5809;53.262;10.408;2024-03-02T04:56:53;7.20;99.90
11505;DHT22;5809;53.262;10.408;2024-03-02T04:59:20;7.20;99.90
11505;DHT22;5809;53.262;10.408;2024-03-02T05:01:47;7.20;99.90
11505;DHT22;5809;53.262;10.408;2024-03-02T05:06:41;7.20;99.90
11505;DHT22;5809;53.262;10.408;2024-03-02T05:09:08;7.20;99.90
11505;DHT22;5809;53.262;10.408;2024-03-02T05:11:35;7.20;99.90
11505;DHT22;5809;53.262;10.408;2024-03-02T05:14:36;7.20;99.90
11505;DHT22;5809;53.262;10.408;2024-03-02T05:17:02;7.30;99.90
11505;DHT22;5809;53.262;10.408;2024-03-02T05:21:56;7.20;99.90
11505;DHT22;5809;53.262;10.408;2024-03-02T05:24:23;7.20;99.90
11505;DHT22;5809;53.262;10.408;2024-03-02T05:26:52;7.20;99.90
11505;DHT22;5809;53.262;10.408;2024-03-02T05:29:19;7.20;99.90
11505;DHT22;5809;53.262;10.408;2024-03-02T05:31:47;7.10;99.90
11505;DHT22;5809;53.262;10.408;2024-03-02T05:34:14;7.10;99.90
11505;DHT22;5809;53.262;10.408;2024-03-02T05:36:41;7.10;99.90
11505;DHT22;5809;53.262;10.408;2024-03-02T05:39:07;7.10;99.90
11505;DHT22;5809;53.262;10.408;2024-03-02T05:41:36;7.10;99.90
11505;DHT22;5809;53.262;10.408;2024-03-02T05:44:03;7.10;99.90
11505;DHT22;5809;53.262;10.408;2024-03-02T05:46:30;7.10;99.90
11505;DHT22;5809;53.262;10.408;2024-03-02T05:48:59;7.10;99.90
11505;DHT22;5809;53.262;10.408;2024-03-02T05:51:25;7.10;99.90
11505;DHT22;5809;53.262;10.408;2024-03-02T05:53:52;7.10;99.90
11505;DHT22;5809;53.262;10.408;2024-03-02T05:56:19;7.10;99.90
11505;DHT22;5809;53.262;10.408;2024-03-02T05:58:46;7.10;99.90
11505;DHT22;5809;53.262;10.408;2024-03-02T06:01:23;7.10;99.90
11505;DHT22;5809;53.262;10.408;2024-03-02T06:06:22;7.10;99.90
11505;DHT22;5809;53.262;10.408;2024-03-02T06:08:49;7.10;99.90
11505;DHT22;5809;53.262;10.408;2024-03-02T06:16:11;7.10;99.90
11505;DHT22;5809;53.262;10.408;2024-03-02T06:18:37;7.10;99.90
11505;DHT22;5809;53.262;10.408;2024-03-02T06:23:33;7.10;99.90
11505;DHT22;5809;53.262;10.408;2024-03-02T06:30:55;7.00;99.90
11505;DHT22;5809;53.262;10.408;2024-03-02T06:33:21;7.10;99.90
11505;DHT22;5809;53.262;10.408;2024-03-02T06:35:48;7.10;99.90
11505;DHT22;5809;53.262;10.408;2024-03-02T06:38:15;7.10;99.90
11505;DHT22;5809;53.262;10.408;2024-03-02T06:40:43;7.10;99.90
11505;DHT22;5809;53.262;10.408;2024-03-02T06:43:10;7.10;99.90
11505;DHT22;5809;53.262;10.408;2024-03-02T06:45:37;7.20;99.90
11505;DHT22;5809;53.262;10.408;2024-03-02T06:48:04;7.20;99.90
11505;DHT22;5809;53.262;10.408;2024-03-02T06:50:31;7.20;99.90
11505;DHT22;5809;53.262;10.408;2024-03-02T06:52:58;7.20;99.90
11505;DHT22;5809;53.262;10.408;2024-03-02T06:57:53;7.20;99.90
11505;DHT22;5809;53.262;10.408;2024-03-02T07:00:20;7.30;99.90
11505;DHT22;5809;53.262;10.408;2024-03-02T07:02:47;7.30;99.90
11505;DHT22;5809;53.262;10.408;2024-03-02T07:05:14;7.30;99.90
11505;DHT22;5809;53.262;10.408;2024-03-02T07:07:41;7.30;99.90
11505;DHT22;5809;53.262;10.408;2024-03-02T07:10:08;7.40;99.90
11505;DHT22;5809;53.262;10.408;2024-03-02T07:12:35;7.40;99.90
11505;DHT22;5809;53.262;10.408;2024-03-02T07:15:04;7.40;99.90
11505;DHT22;5809;53.262;10.408;2024-03-02T07:17:50;7.40;99.90
11505;DHT22;5809;53.262;10.408;2024-03-02T07:20:17;7.40;99.90
11505;DHT22;5809;53.262;10.408;2024-03-02T07:25:11;7.50;99.90
11505;DHT22;5809;53.262;10.408;2024-03-02T07:30:07;7.60;99.90
11505;DHT22;5809;53.262;10.408;2024-03-02T07:32:34;7.70;99.90
11505;DHT22;5809;53.262;10.408;2024-03-02T07:35:01;7.70;99.90
11505;DHT22;5809;53.262;10.408;2024-03-02T07:37:29;7.70;99.90
11505;DHT22;5809;53.262;10.408;2024-03-02T07:39:56;7.70;99.90
11505;DHT22;5809;53.262;10.408;2024-03-02T07:42:22;7.90;99.90
11505;DHT22;5809;53.262;10.408;2024-03-02T07:44:49;8.00;99.90
11505;DHT22;5809;53.262;10.408;2024-03-02T07:47:17;8.20;99.90
11505;DHT22;5809;53.262;10.408;2024-03-02T07:49:44;8.20;99.90
11505;DHT22;5809;53.262;10.408;2024-03-02T07:52:12;8.30;99.90
11505;DHT22;5809;53.262;10.408;2024-03-02T07:54:38;8.40;99.90
11505;DHT22;5809;53.262;10.408;2024-03-02T08:04:28;8.80;99.90
11505;DHT22;5809;53.262;10.408;2024-03-02T08:06:55;9.00;99.90
11505;DHT22;5809;53.262;10.408;2024-03-02T08:09:22;9.40;99.90
11505;DHT22;5809;53.262;10.408;2024-03-02T08:11:49;9.60;99.90
11505;DHT22;5809;53.262;10.408;2024-03-02T08:14:16;10.00;99.90
11505;DHT22;5809;53.262;10.408;2024-03-02T08:16:43;10.00;99.90
11505;DHT22;5809;53.262;10.408;2024-03-02T08:19:10;10.30;99.90
11505;DHT22;5809;53.262;10.408;2024-03-02T08:21:38;10.40;99.90
11505;DHT22;5809;53.262;10.408;2024-03-02T08:24:05;10.40;99.90
11505;DHT22;5809;53.262;10.408;2024-03-02T08:26:33;10.20;99.90
11505;DHT22;5809;53.262;10.408;2024-03-02T08:31:27;9.70;99.90
11505;DHT22;5809;53.262;10.408;2024-03-02T08:36:22;10.00;99.90
11505;DHT22;5809;53.262;10.408;2024-03-02T08:38:51;10.20;99.90
11505;DHT22;5809;53.262;10.408;2024-03-02T08:41:18;10.60;99.90
11505;DHT22;5809;53.262;10.408;2024-03-02T08:43:44;12.60;99.90
11505;DHT22;5809;53.262;10.408;2024-03-02T08:46:11;10.80;99.90
11505;DHT22;5809;53.262;10.408;2024-03-02T08:48:38;11.00;99.90
11505;DHT22;5809;53.262;10.408;2024-03-02T08:51:05;11.40;99.90
11505;DHT22;5809;53.262;10.408;2024-03-02T08:53:33;12.30;99.90
11505;DHT22;5809;53.262;10.408;2024-03-02T08:56:01;13.10;99.90
11505;DHT22;5809;53.262;10.408;2024-03-02T08:58:31;11.90;99.90
11505;DHT22;5809;53.262;10.408;2024-03-02T09:00:58;12.00;99.90
11505;DHT22;5809;53.262;10.408;2024-03-02T09:03:24;12.30;99.90
11505;DHT22;5809;53.262;10.408;2024-03-02T09:05:51;12.50;99.90
11505;DHT22;5809;53.262;10.408;2024-03-02T09:08:18;12.90;99.90
11505;DHT22;5809;53.262;10.408;2024-03-02T09:10:45;13.20;99.90
11505;DHT22;5809;53.262;10.408;2024-03-02T09:13:13;13.20;99.90
11505;DHT22;5809;53.262;10.408;2024-03-02T09:15:40;13.30;99.90
11505;DHT22;5809;53.262;10.408;2024-03-02T09:18:07;13.30;99.90
11505;DHT22;5809;53.262;10.408;2024-03-02T09:20:33;12.90;99.90
11505;DHT22;5809;53.262;10.408;2024-03-02T09:23:00;13.60;99.90
11505;DHT22;5809;53.262;10.408;2024-03-02T09:25:27;13.90;99.90
11505;DHT22;5809;53.262;10.408;2024-03-02T09:27:54;14.30;99.90
11505;DHT22;5809;53.262;10.408;2024-03-02T09:30:22;15.00;99.90
11505;DHT22;5809;53.262;10.408;2024-03-02T09:32:49;15.50;99.90
11505;DHT22;5809;53.262;10.408;2024-03-02T09:35:16;14.20;99.90
11505;DHT22;5809;53.262;10.408;2024-03-02T09:37:43;13.90;99.90
11505;DHT22;5809;53.262;10.408;2024-03-02T09:40:11;13.60;99.90
11505;DHT22;5809;53.262;10.408;2024-03-02T09:42:37;13.00;99.90
11505;DHT22;5809;53.262;10.408;2024-03-02T09:45:06;13.50;99.90
11505;DHT22;5809;53.262;10.408;2024-03-02T09:47:34;13.70;99.90
11505;DHT22;5809;53.262;10.408;2024-03-02T09:50:01;14.00;99.90
11505;DHT22;5809;53.262;10.408;2024-03-02T09:52:28;14.10;99.90
11505;DHT22;5809;53.262;10.408;2024-03-02T09:54:55;14.50;99.90
11505;DHT22;5809;53.262;10.408;2024-03-02T09:57:21;14.50;99.90
11505;DHT22;5809;53.262;10.408;2024-03-02T09:59:48;14.50;99.90
11505;DHT22;5809;53.262;10.408;2024-03-02T10:02:15;14.40;99.90
11505;DHT22;5809;53.262;10.408;2024-03-02T10:04:43;13.20;99.90
11505;DHT22;5809;53.262;10.408;2024-03-02T10:07:12;13.30;99.90
11505;DHT22;5809;53.262;10.408;2024-03-02T10:09:39;13.00;99.90
11505;DHT22;5809;53.262;10.408;2024-03-02T10:12:07;13.30;99.90
11505;DHT22;5809;53.262;10.408;2024-03-02T10:14:34;13.40;99.90
11505;DHT22;5809;53.262;10.408;2024-03-02T10:17:03;13.30;99.90
11505;DHT22;5809;53.262;10.408;2024-03-02T10:19:30;12.90;99.90
11505;DHT22;5809;53.262;10.408;2024-03-02T10:22:00;12.90;99.90
11505;DHT22;5809;53.262;10.408;2024-03-02T10:24:28;12.80;99.90
11505;DHT22;5809;53.262;10.408;2024-03-02T10:27:01;12.20;99.90
11505;DHT22;5809;53.262;10.408;2024-03-02T10:29:29;12.40;99.90
11505;DHT22;5809;53.262;10.408;2024-03-02T10:31:56;12.10;99.90
11505;DHT22;5809;53.262;10.408;2024-03-02T10:34:24;12.10;99.90
11505;DHT22;5809;53.262;10.408;2024-03-02T10:36:51;12.20;99.90
11505;DHT22;5809;53.262;10.408;2024-03-02T10:39:19;13.10;99.90
11505;DHT22;5809;53.262;10.408;2024-03-02T10:41:49;12.10;99.90
11505;DHT22;5809;53.262;10.408;2024-03-02T10:44:19;13.40;99.90
11505;DHT22;5809;53.262;10.408;2024-03-02T10:46:47;12.90;99.90
11505;DHT22;5809;53.262;10.408;2024-03-02T10:49:16;13.20;99.90
11505;DHT22;5809;53.262;10.408;2024-03-02T10:51:43;13.10;99.90
11505;DHT22;5809;53.262;10.408;2024-03-02T10:54:10;13.50;99.90
11505;DHT22;5809;53.262;10.408;2024-03-02T10:56:40;13.00;99.90
11505;DHT22;5809;53.262;10.408;2024-03-02T10:59:16;12.90;99.90
11505;DHT22;5809;53.262;10.408;2024-03-02T11:01:46;13.90;99.90
11505;DHT22;5809;53.262;10.408;2024-03-02T11:04:16;13.00;99.90
11505;DHT22;5809;53.262;10.408;2024-03-02T11:06:48;12.90;99.90
11505;DHT22;5809;53.262;10.408;2024-03-02T11:09:17;13.60;99.90
11505;DHT22;5809;53.262;10.408;2024-03-02T11:11:49;13.10;99.90
11505;DHT22;5809;53.262;10.408;2024-03-02T11:14:21;12.50;99.90
11505;DHT22;5809;53.262;10.408;2024-03-02T11:16:48;12.50;99.90
11505;DHT22;5809;53.262;10.408;2024-03-02T11:19:15;12.80;99.90
11505;DHT22;5809;53.262;10.408;2024-03-02T11:21:42;13.30;99.90
11505;DHT22;5809;53.262;10.408;2024-03-02T11:24:29;13.90;99.90
11505;DHT22;5809;53.262;10.408;2024-03-02T11:27:00;14.60;99.90
11505;DHT22;5809;53.262;10.408;2024-03-02T11:29:43;14.20;99.90
11505;DHT22;5809;53.262;10.408;2024-03-02T11:32:17;14.30;99.90
11505;DHT22;5809;53.262;10.408;2024-03-02T11:34:46;14.80;99.90
11505;DHT22;5809;53.262;10.408;2024-03-02T11:37:15;15.50;99.90
11505;DHT22;5809;53.262;10.408;2024-03-02T11:39:44;15.90;99.90
11505;DHT22;5809;53.262;10.408;2024-03-02T11:42:13;15.10;99.90
11505;DHT22;5809;53.262;10.408;2024-03-02T11:44:43;15.30;99.90
11505;DHT22;5809;53.262;10.408;2024-03-02T11:47:11;15.00;99.90
11505;DHT22;5809;53.262;10.408;2024-03-02T11:49:41;14.60;99.90
11505;DHT22;5809;53.262;10.408;2024-03-02T11:52:09;15.00;99.90
11505;DHT22;5809;53.262;10.408;2024-03-02T11:54:37;14.60;99.90
11505;DHT22;5809;53.262;10.408;2024-03-02T11:57:06;14.40;99.90
11505;DHT22;5809;53.262;10.408;2024-03-02T11:59:35;14.90;99.90
11505;DHT22;5809;53.262;10.408;2024-03-02T12:02:02;14.70;99.90
11505;DHT22;5809;53.262;10.408;2024-03-02T12:04:29;14.60;99.90
11505;DHT22;5809;53.262;10.408;2024-03-02T12:06:58;14.60;99.90
11505;DHT22;5809;53.262;10.408;2024-03-02T12:09:27;14.60;99.90
11505;DHT22;5809;53.262;10.408;2024-03-02T12:12:04;14.40;99.90
11505;DHT22;5809;53.262;10.408;2024-03-02T12:14:31;14.00;99.90
11505;DHT22;5809;53.262;10.408;2024-03-02T12:17:00;13.90;99.90
11505;DHT22;5809;53.262;10.408;2024-03-02T12:19:27;11.10;99.90
11505;DHT22;5809;53.262;10.408;2024-03-02T12:21:55;13.30;99.90
11505;DHT22;5809;53.262;10.408;2024-03-02T12:24:23;13.90;99.90
11505;DHT22;5809;53.262;10.408;2024-03-02T12:26:50;13.60;99.90
11505;DHT22;5809;53.262;10.408;2024-03-02T12:29:19;13.60;99.90
11505;DHT22;5809;53.262;10.408;2024-03-02T12:31:48;13.20;99.90
11505;DHT22;5809;53.262;10.408;2024-03-02T12:34:17;13.10;99.90
11505;DHT22;5809;53.262;10.408;2024-03-02T12:36:45;14.50;99.90
11505;DHT22;5809;53.262;10.408;2024-03-02T12:39:15;13.10;99.90
11505;DHT22;5809;53.262;10.408;2024-03-02T12:41:42;13.10;99.90
11505;DHT22;5809;53.262;10.408;2024-03-02T12:44:09;13.00;99.90
11505;DHT22;5809;53.262;10.408;2024-03-02T12:46:36;13.60;99.90
11505;DHT22;5809;53.262;10.408;2024-03-02T12:49:08;14.60;99.90
11505;DHT22;5809;53.262;10.408;2024-03-02T12:51:39;15.20;99.90
11505;DHT22;5809;53.262;10.408;2024-03-02T12:54:08;13.10;99.90
11505;DHT22;5809;53.262;10.408;2024-03-02T12:56:35;13.50;99.90
11505;DHT22;5809;53.262;10.408;2024-03-02T12:59:03;13.20;99.90
11505;DHT22;5809;53.262;10.408;2024-03-02T13:01:30;13.30;99.90
11505;DHT22;5809;53.262;10.408;2024-03-02T13:03:58;13.10;99.90
11505;DHT22;5809;53.262;10.408;2024-03-02T13:06:25;13.50;99.90
11505;DHT22;5809;53.262;10.408;2024-03-02T13:08:55;13.30;99.90
11505;DHT22;5809;53.262;10.408;2024-03-02T13:11:22;12.90;99.90
11505;DHT22;5809;53.262;10.408;2024-03-02T13:13:50;12.80;99.90
11505;DHT22;5809;53.262;10.408;2024-03-02T13:16:18;14.20;99.90
11505;DHT22;5809;53.262;10.408;2024-03-02T13:18:45;12.90;99.90
11505;DHT22;5809;53.262;10.408;2024-03-02T13:21:12;13.00;99.90
11505;DHT22;5809;53.262;10.408;2024-03-02T13:23:39;12.80;99.90
11505;DHT22;5809;53.262;10.408;2024-03-02T13:26:07;12.80;99.90
11505;DHT22;5809;53.262;10.408;2024-03-02T13:28:36;12.80;99.90
11505;DHT22;5809;53.262;10.408;2024-03-02T13:31:03;13.60;99.90
11505;DHT22;5809;53.262;10.408;2024-03-02T13:33:31;12.90;99.90
11505;DHT22;5809;53.262;10.408;2024-03-02T13:35:58;13.30;99.90
11505;DHT22;5809;53.262;10.408;2024-03-02T13:38:25;12.80;99.90
11505;DHT22;5809;53.262;10.408;2024-03-02T13:40:52;13.00;99.90
11505;DHT22;5809;53.262;10.408;2024-03-02T13:43:20;13.00;99.90
11505;DHT22;5809;53.262;10.408;2024-03-02T13:45:48;12.90;99.90
11505;DHT22;5809;53.262;10.408;2024-03-02T13:48:14;13.00;99.90
11505;DHT22;5809;53.262;10.408;2024-03-02T13:50:41;12.90;99.90
11505;DHT22;5809;53.262;10.408;2024-03-02T13:53:08;12.80;99.90
11505;DHT22;5809;53.262;10.408;2024-03-02T13:55:35;12.80;99.90
11505;DHT22;5809;53.262;10.408;2024-03-02T13:58:02;12.80;99.90
11505;DHT22;5809;53.262;10.408;2024-03-02T14:00:30;12.90;99.90
11505;DHT22;5809;53.262;10.408;2024-03-02T14:02:57;12.90;99.90
11505;DHT22;5809;53.262;10.408;2024-03-02T14:05:24;13.00;99.90
11505;DHT22;5809;53.262;10.408;2024-03-02T14:07:50;13.00;99.90
11505;DHT22;5809;53.262;10.408;2024-03-02T14:10:17;13.80;99.90
11505;DHT22;5809;53.262;10.408;2024-03-02T14:12:47;12.90;99.90
11505;DHT22;5809;53.262;10.408;2024-03-02T14:15:14;12.80;99.90
11505;DHT22;5809;53.262;10.408;2024-03-02T14:17:43;12.70;99.90
11505;DHT22;5809;53.262;10.408;2024-03-02T14:20:10;12.70;99.90
11505;DHT22;5809;53.262;10.408;2024-03-02T14:22:39;12.70;99.90
11505;DHT22;5809;53.262;10.408;2024-03-02T14:25:06;14.10;99.90
11505;DHT22;5809;53.262;10.408;2024-03-02T14:27:33;12.60;99.90
11505;DHT22;5809;53.262;10.408;2024-03-02T14:30:01;15.40;99.90
11505;DHT22;5809;53.262;10.408;2024-03-02T14:32:27;12.70;99.90
11505;DHT22;5809;53.262;10.408;2024-03-02T14:34:56;12.60;99.90
11505;DHT22;5809;53.262;10.408;2024-03-02T14:37:22;12.70;99.90
11505;DHT22;5809;53.262;10.408;2024-03-02T14:39:49;12.70;99.90
11505;DHT22;5809;53.262;10.408;2024-03-02T14:42:16;12.80;99.90
11505;DHT22;5809;53.262;10.408;2024-03-02T14:44:43;12.70;99.90
11505;DHT22;5809;53.262;10.408;2024-03-02T14:47:10;12.90;99.90
11505;DHT22;5809;53.262;10.408;2024-03-02T14:49:37;12.80;99.90
11505;DHT22;5809;53.262;10.408;2024-03-02T14:52:07;13.90;99.90
11505;DHT22;5809;53.262;10.408;2024-03-02T14:54:34;13.50;99.90
11505;DHT22;5809;53.262;10.408;2024-03-02T14:57:01;14.10;99.90
11505;DHT22;5809;53.262;10.408;2024-03-02T14:59:29;13.00;99.90
11505;DHT22;5809;53.262;10.408;2024-03-02T15:01:56;13.70;99.90
11505;DHT22;5809;53.262;10.408;2024-03-02T15:04:23;13.50;99.90
11505;DHT22;5809;53.262;10.408;2024-03-02T15:06:50;13.80;99.90
11505;DHT22;5809;53.262;10.408;2024-03-02T15:09:18;14.50;99.90
11505;DHT22;5809;53.262;10.408;2024-03-02T15:11:45;14.20;99.90
11505;DHT22;5809;53.262;10.408;2024-03-02T15:14:12;15.40;99.90
11505;DHT22;5809;53.262;10.408;2024-03-02T15:16:40;14.70;99.90
11505;DHT22;5809;53.262;10.408;2024-03-02T15:19:07;14.60;99.90
11505;DHT22;5809;53.262;10.408;2024-03-02T15:21:34;13.80;99.90
11505;DHT22;5809;53.262;10.408;2024-03-02T15:24:01;13.90;99.90
11505;DHT22;5809;53.262;10.408;2024-03-02T15:26:30;14.00;99.90
11505;DHT22;5809;53.262;10.408;2024-03-02T15:28:56;14.20;99.90
11505;DHT22;5809;53.262;10.408;2024-03-02T15:31:24;13.60;99.90
11505;DHT22;5809;53.262;10.408;2024-03-02T15:33:52;13.70;99.90
11505;DHT22;5809;53.262;10.408;2024-03-02T15:36:21;13.70;99.90
11505;DHT22;5809;53.262;10.408;2024-03-02T15:38:48;13.50;99.90
11505;DHT22;5809;53.262;10.408;2024-03-02T15:41:14;13.50;99.90
11505;DHT22;5809;53.262;10.408;2024-03-02T15:43:43;13.40;99.90
11505;DHT22;5809;53.262;10.408;2024-03-02T15:46:10;13.60;99.90
11505;DHT22;5809;53.262;10.408;2024-03-02T15:48:37;13.30;99.90
11505;DHT22;5809;53.262;10.408;2024-03-02T15:51:04;13.90;99.90
11505;DHT22;5809;53.262;10.408;2024-03-02T15:53:31;13.20;99.90
11505;DHT22;5809;53.262;10.408;2024-03-02T15:55:58;13.40;99.90
11505;DHT22;5809;53.262;10.408;2024-03-02T15:58:25;13.10;99.90
11505;DHT22;5809;53.262;10.408;2024-03-02T16:00:53;13.60;99.90
11505;DHT22;5809;53.262;10.408;2024-03-02T16:03:20;13.80;99.90
11505;DHT22;5809;53.262;10.408;2024-03-02T16:05:47;13.00;99.90
11505;DHT22;5809;53.262;10.408;2024-03-02T16:08:14;13.50;99.90
11505;DHT22;5809;53.262;10.408;2024-03-02T16:10:41;13.40;99.90
11505;DHT22;5809;53.262;10.408;2024-03-02T16:13:07;13.30;99.90
11505;DHT22;5809;53.262;10.408;2024-03-02T16:15:34;12.80;99.90
11505;DHT22;5809;53.262;10.408;2024-03-02T16:18:03;12.80;99.90
11505;DHT22;5809;53.262;10.408;2024-03-02T16:20:30;12.70;99.90
11505;DHT22;5809;53.262;10.408;2024-03-02T16:22:56;13.80;99.90
11505;DHT22;5809;53.262;10.408;2024-03-02T16:25:23;13.50;99.90
11505;DHT22;5809;53.262;10.408;2024-03-02T16:27:51;13.90;99.90
11505;DHT22;5809;53.262;10.408;2024-03-02T16:30:18;14.50;99.90
11505;DHT22;5809;53.262;10.408;2024-03-02T16:32:45;14.20;99.90
11505;DHT22;5809;53.262;10.408;2024-03-02T16:35:14;12.40;99.90
11505;DHT22;5809;53.262;10.408;2024-03-02T16:37:41;12.40;99.90
11505;DHT22;5809;53.262;10.408;2024-03-02T16:40:09;12.30;99.90
11505;DHT22;5809;53.262;10.408;2024-03-02T16:42:36;12.30;99.90
11505;DHT22;5809;53.262;10.408;2024-03-02T16:45:03;12.20;99.90
11505;DHT22;5809;53.262;10.408;2024-03-02T16:47:30;12.20;99.90
11505;DHT22;5809;53.262;10.408;2024-03-02T16:49:58;12.10;99.90
11505;DHT22;5809;53.262;10.408;2024-03-02T16:52:26;12.10;99.90
11505;DHT22;5809;53.262;10.408;2024-03-02T16:54:54;12.00;99.90
11505;DHT22;5809;53.262;10.408;2024-03-02T16:57:21;13.10;99.90